Evans, Colorado
Current Conditions -  °F | °C
As of 4:35 AM on Thursday 18 Dec 2014 (Local Time) from KGXY Reporting Station
Clear Clear  
Wind Chill: 18°   Ceiling: Unl
Heat Index: 18°   Visibility: 10mi
Dew Point: 10°   Wind: 3mph
Humidity: 73%   Direction: 300°WNW
Pressure: 29.99"   Gusts: NA
Location:  40.38°N, 104.69°W
Report Text: KGXY 181135Z AUTO 30003KT 10SM CLR M08/M12 A2999 RMK AO1
Loading
Personal Weather Stations






























Interactive Weather Map New forecast layout! Learn more

10-Day Weather Forecast

Advertisements
Track Severe Weather on mobile